Atlanta, Georgia
Traffic Map
Current Weather Conditions
Atlanta, Georgia
Few Clouds
Few Clouds
68°
Feels Like: 68°
Wind Chill: 68° Ceiling: Unl
Heat Index: 68° Visibility: 10mi
Dew Point: 63° Wind: 14mph
Humidity: 84% Direction: 70° (ENE)
Pressure: 30.12in Gusts: 0mph
Raw Report DataKATL 200752Z 07012KT 10SM FEW012 20/17 A3012 RMK AO2 SLP189 T02000172
Traffic Incident Summary
Active as of:
Severity:
Category:
InformationThere was an issue retrieving the traffic information for this location. Please try a different location or try again shortly.
Advertisements
Track Severe Weather on mobile